createdAt,value
2019-03-01T00:00:54.853Z,0.00
2019-03-01T00:01:54.788Z,0.00
2019-03-01T00:02:54.723Z,0.00
2019-03-01T00:03:54.658Z,0.00
2019-03-01T00:04:54.597Z,0.00
2019-03-01T00:05:54.533Z,0.00
2019-03-01T00:06:54.470Z,0.00
2019-03-01T00:07:54.406Z,0.00
2019-03-01T00:08:54.345Z,0.00
2019-03-01T00:09:54.285Z,0.00
2019-03-01T00:10:54.217Z,0.00
2019-03-01T00:11:54.174Z,0.00
2019-03-01T00:12:54.087Z,0.00
2019-03-01T00:13:54.024Z,0.00
2019-03-01T00:14:53.961Z,0.00
2019-03-01T00:15:53.893Z,0.00
2019-03-01T00:16:53.831Z,0.00
2019-03-01T00:17:53.771Z,0.00
2019-03-01T00:18:53.706Z,0.00
2019-03-01T00:19:53.639Z,0.00
2019-03-01T00:20:53.576Z,0.00
2019-03-01T00:21:53.514Z,0.00
2019-03-01T00:22:53.454Z,0.00
2019-03-01T00:23:53.391Z,0.00
2019-03-01T00:24:53.319Z,0.00
2019-03-01T00:25:53.263Z,0.00
2019-03-01T00:26:53.194Z,0.00
2019-03-01T00:27:53.136Z,0.00
2019-03-01T00:28:53.070Z,0.00
2019-03-01T00:29:53.002Z,0.00
2019-03-01T00:30:52.937Z,0.00
2019-03-01T00:31:52.873Z,0.00
2019-03-01T00:32:52.812Z,0.00
2019-03-01T00:33:52.748Z,0.00
2019-03-01T00:34:52.680Z,0.00
2019-03-01T00:35:52.623Z,0.00
2019-03-01T00:36:52.555Z,0.00
2019-03-01T00:37:52.503Z,0.00
2019-03-01T00:38:52.423Z,0.00
2019-03-01T00:39:52.364Z,0.00
2019-03-01T00:40:52.300Z,0.00
2019-03-01T00:41:52.236Z,0.00
2019-03-01T00:42:52.176Z,0.00
2019-03-01T00:43:52.110Z,0.00
2019-03-01T00:44:52.044Z,0.00
2019-03-01T00:45:51.985Z,0.00
2019-03-01T00:46:51.919Z,0.00
2019-03-01T00:47:51.855Z,0.00
2019-03-01T00:48:51.794Z,0.00
2019-03-01T00:49:51.730Z,0.00
2019-03-01T00:50:51.662Z,0.00
2019-03-01T00:51:51.598Z,0.00
2019-03-01T00:52:51.534Z,0.00
2019-03-01T00:53:51.473Z,0.00
2019-03-01T00:54:51.408Z,0.00
2019-03-01T00:55:51.346Z,0.00
2019-03-01T00:56:51.279Z,0.00
2019-03-01T00:57:51.219Z,0.00
2019-03-01T00:58:51.153Z,0.00
2019-03-01T00:59:51.097Z,0.00
2019-03-01T01:00:51.033Z,0.00
2019-03-01T01:01:50.967Z,0.00
2019-03-01T01:02:50.909Z,0.00
2019-03-01T01:03:50.839Z,0.00
2019-03-01T01:04:50.765Z,0.00
2019-03-01T01:05:50.721Z,0.00
2019-03-01T01:06:50.640Z,0.00
2019-03-01T01:07:50.576Z,0.00
2019-03-01T01:08:50.517Z,0.00
2019-03-01T01:09:50.456Z,0.00
2019-03-01T01:10:50.384Z,0.00
2019-03-01T01:11:50.320Z,0.00
2019-03-01T01:12:50.258Z,0.00
2019-03-01T01:13:50.195Z,0.00
2019-03-01T01:14:50.136Z,0.00
2019-03-01T01:15:50.067Z,0.00
2019-03-01T01:16:50.041Z,0.00
2019-03-01T01:17:49.932Z,0.00
2019-03-01T01:18:49.876Z,0.00
2019-03-01T01:19:49.825Z,0.00
2019-03-01T01:20:49.743Z,0.00
2019-03-01T01:21:49.678Z,0.00
2019-03-01T01:22:49.616Z,0.00
2019-03-01T01:23:49.555Z,0.00
2019-03-01T01:24:49.487Z,0.00
2019-03-01T01:25:49.421Z,0.00
2019-03-01T01:26:49.372Z,0.00
2019-03-01T01:27:49.308Z,0.00
2019-03-01T01:28:49.233Z,0.00
2019-03-01T01:29:49.177Z,0.00
2019-03-01T01:30:49.103Z,0.00
2019-03-01T01:31:49.041Z,0.00
2019-03-01T01:32:48.983Z,0.00
2019-03-01T01:33:48.910Z,0.00
2019-03-01T01:34:48.849Z,0.00
2019-03-01T01:35:48.783Z,0.00
2019-03-01T01:36:48.720Z,0.00
2019-03-01T01:37:48.658Z,0.00
2019-03-01T01:38:48.588Z,0.00
2019-03-01T01:39:48.529Z,0.00
2019-03-01T01:40:48.467Z,0.00
2019-03-01T01:41:48.400Z,0.00
2019-03-01T01:42:48.348Z,0.00
2019-03-01T01:43:48.270Z,0.00
2019-03-01T01:44:48.220Z,0.00
2019-03-01T01:45:48.161Z,0.00
2019-03-01T01:46:48.077Z,0.00
2019-03-01T01:47:48.019Z,0.00
2019-03-01T01:48:47.951Z,0.00
2019-03-01T01:49:47.888Z,0.00
2019-03-01T01:50:47.821Z,0.00
2019-03-01T01:51:47.760Z,0.00
2019-03-01T01:52:47.715Z,0.00
2019-03-01T01:53:47.637Z,0.00
2019-03-01T01:54:47.581Z,0.00
2019-03-01T01:55:47.503Z,0.00
2019-03-01T01:56:47.454Z,0.00
2019-03-01T01:57:47.381Z,0.00
2019-03-01T01:58:47.310Z,0.00
2019-03-01T01:59:47.242Z,0.00
2019-03-01T02:00:47.184Z,0.00
2019-03-01T02:01:47.127Z,0.00
2019-03-01T02:02:47.055Z,0.00
2019-03-01T02:03:46.990Z,0.00
2019-03-01T02:04:46.925Z,0.00
2019-03-01T02:05:46.879Z,0.00
2019-03-01T02:06:46.796Z,0.00
2019-03-01T02:07:46.742Z,0.00
2019-03-01T02:08:46.676Z,0.00
2019-03-01T02:09:46.599Z,0.00
2019-03-01T02:10:46.539Z,0.00
2019-03-01T02:11:46.474Z,0.00
2019-03-01T02:12:46.410Z,0.00
2019-03-01T02:13:46.343Z,0.00
2019-03-01T02:14:46.288Z,0.00
2019-03-01T02:15:46.234Z,0.00
2019-03-01T02:16:46.159Z,0.00
2019-03-01T02:17:46.091Z,0.00
2019-03-01T02:18:46.046Z,0.00
2019-03-01T02:19:45.956Z,0.00
2019-03-01T02:20:45.918Z,0.00
2019-03-01T02:21:45.851Z,0.00
2019-03-01T02:22:45.767Z,0.00
2019-03-01T02:23:45.705Z,0.00
2019-03-01T02:24:45.640Z,0.00
2019-03-01T02:25:45.575Z,0.00
2019-03-01T02:26:45.515Z,0.00
2019-03-01T02:27:45.452Z,0.00
2019-03-01T02:28:45.414Z,0.00
2019-03-01T02:29:45.313Z,0.00
2019-03-01T02:30:45.254Z,0.00
2019-03-01T02:31:45.203Z,0.00
2019-03-01T02:32:45.152Z,0.00
2019-03-01T02:33:45.066Z,0.00
2019-03-01T02:34:45.032Z,0.00
2019-03-01T02:35:44.937Z,0.00
2019-03-01T02:36:44.884Z,0.00
2019-03-01T02:37:44.806Z,0.00
2019-03-01T02:38:44.744Z,0.00
2019-03-01T02:39:44.683Z,0.00
2019-03-01T02:40:44.616Z,0.00
2019-03-01T02:41:44.559Z,0.00
2019-03-01T02:42:44.479Z,0.00
2019-03-01T02:43:44.417Z,0.00
2019-03-01T02:44:44.370Z,0.00
2019-03-01T02:45:44.293Z,0.00
2019-03-01T02:46:44.221Z,0.00
2019-03-01T02:47:44.161Z,0.00
2019-03-01T02:48:44.093Z,0.00
2019-03-01T02:49:44.045Z,0.00
2019-03-01T02:50:43.976Z,0.00
2019-03-01T02:51:43.913Z,0.00
2019-03-01T02:52:43.839Z,0.00
2019-03-01T02:53:43.776Z,0.00
2019-03-01T02:54:43.712Z,0.00
2019-03-01T02:55:43.644Z,0.00
2019-03-01T02:56:43.583Z,0.00
2019-03-01T02:57:43.532Z,0.00
2019-03-01T02:58:43.454Z,0.00
2019-03-01T02:59:43.391Z,0.00
2019-03-01T03:00:43.319Z,0.00
2019-03-01T03:01:43.269Z,0.00
2019-03-01T03:02:43.201Z,0.00
2019-03-01T03:03:43.142Z,0.00
2019-03-01T03:04:43.077Z,0.00
2019-03-01T03:05:43.008Z,0.00
2019-03-01T03:06:42.981Z,0.00
2019-03-01T03:07:42.875Z,0.00
2019-03-01T03:08:42.823Z,0.00
2019-03-01T03:09:42.741Z,0.00
2019-03-01T03:10:42.675Z,0.00
2019-03-01T03:11:42.616Z,0.00
2019-03-01T03:12:42.556Z,0.00
2019-03-01T03:13:42.487Z,0.00
2019-03-01T03:14:42.421Z,0.00
2019-03-01T03:15:42.358Z,0.00
2019-03-01T03:16:42.294Z,0.00
2019-03-01T03:17:42.236Z,0.00
2019-03-01T03:18:42.171Z,0.00
2019-03-01T03:19:42.097Z,0.00
2019-03-01T03:20:42.048Z,0.00
2019-03-01T03:21:41.968Z,0.00
2019-03-01T03:22:41.907Z,0.00
2019-03-01T03:23:41.846Z,0.00
2019-03-01T03:24:41.786Z,0.00
2019-03-01T03:25:41.713Z,0.00
2019-03-01T03:26:41.646Z,0.00
2019-03-01T03:27:41.579Z,0.00
2019-03-01T03:28:41.535Z,0.00
2019-03-01T03:29:41.453Z,0.00
2019-03-01T03:30:41.386Z,0.00
2019-03-01T03:31:41.327Z,0.00
2019-03-01T03:32:41.261Z,0.00
2019-03-01T03:33:41.195Z,0.00
2019-03-01T03:34:41.137Z,0.00
2019-03-01T03:35:41.069Z,0.00
2019-03-01T03:36:41.000Z,0.00
2019-03-01T03:37:40.934Z,0.00
2019-03-01T03:38:40.872Z,0.00
2019-03-01T03:39:40.811Z,0.00
2019-03-01T03:40:40.779Z,0.00
2019-03-01T03:41:40.682Z,0.00
2019-03-01T03:42:40.622Z,0.00
2019-03-01T03:43:40.550Z,0.00
2019-03-01T03:44:40.518Z,0.00
2019-03-01T03:45:40.419Z,0.00
2019-03-01T03:46:40.363Z,0.00
2019-03-01T03:47:40.302Z,0.00
2019-03-01T03:48:40.223Z,0.00
2019-03-01T03:49:40.171Z,0.00
2019-03-01T03:50:40.109Z,0.00
2019-03-01T03:51:40.043Z,0.00
2019-03-01T03:52:39.967Z,0.00
2019-03-01T03:53:39.903Z,0.00
2019-03-01T03:54:39.844Z,0.00
2019-03-01T03:55:39.770Z,0.00
2019-03-01T03:56:39.720Z,0.00
2019-03-01T03:57:39.664Z,0.00
2019-03-01T03:58:39.575Z,0.00
2019-03-01T03:59:39.510Z,0.00
2019-03-01T04:00:39.446Z,0.00
2019-03-01T04:01:39.401Z,0.00
2019-03-01T04:02:39.325Z,0.00
2019-03-01T04:03:39.263Z,0.00
2019-03-01T04:04:39.197Z,0.00
2019-03-01T04:05:39.120Z,0.00
2019-03-01T04:06:39.110Z,0.00
2019-03-01T04:07:39.007Z,0.00
2019-03-01T04:08:38.931Z,0.00
2019-03-01T04:09:38.888Z,0.00
2019-03-01T04:10:38.838Z,0.00
2019-03-01T04:11:38.733Z,0.00
2019-03-01T04:12:38.690Z,0.00
2019-03-01T04:13:38.605Z,0.00
2019-03-01T04:14:38.580Z,0.00
2019-03-01T04:15:38.523Z,0.00
2019-03-01T04:16:38.432Z,0.00
2019-03-01T04:17:38.366Z,0.00
2019-03-01T04:18:38.278Z,0.00
2019-03-01T04:19:38.216Z,0.00
2019-03-01T04:20:38.175Z,0.00
2019-03-01T04:21:38.093Z,0.00
2019-03-01T04:22:38.020Z,0.00
2019-03-01T04:23:37.998Z,0.00
2019-03-01T04:24:37.900Z,0.00
2019-03-01T04:25:37.821Z,0.00
2019-03-01T04:26:37.762Z,0.00
2019-03-01T04:27:37.736Z,0.00
2019-03-01T04:28:37.629Z,0.00
2019-03-01T04:29:37.596Z,0.00
2019-03-01T04:30:37.526Z,0.00
2019-03-01T04:31:37.435Z,0.00
2019-03-01T04:32:37.371Z,0.00
2019-03-01T04:33:37.319Z,0.00
2019-03-01T04:34:37.250Z,0.00
2019-03-01T04:35:37.186Z,0.00
2019-03-01T04:36:37.173Z,0.00
2019-03-01T04:37:37.079Z,0.00
2019-03-01T04:38:36.981Z,0.00
2019-03-01T04:39:36.911Z,0.00
2019-03-01T04:40:36.856Z,0.00
2019-03-01T04:41:36.786Z,0.00
2019-03-01T04:42:36.718Z,0.00
2019-03-01T04:43:36.655Z,0.00
2019-03-01T04:44:36.607Z,0.00
2019-03-01T04:45:36.523Z,0.00
2019-03-01T04:46:36.457Z,0.00
2019-03-01T04:47:36.400Z,0.00
2019-03-01T04:48:36.328Z,0.00
2019-03-01T04:49:36.270Z,0.00
2019-03-01T04:50:36.213Z,0.00
2019-03-01T04:51:40.161Z,0.00
2019-03-01T04:52:36.067Z,0.00
2019-03-01T04:53:36.003Z,0.00
2019-03-01T04:54:35.935Z,0.00
2019-03-01T04:55:35.871Z,0.00
2019-03-01T04:56:35.809Z,0.00
2019-03-01T04:57:35.752Z,0.00
2019-03-01T04:58:35.685Z,0.00
2019-03-01T04:59:35.603Z,0.00
2019-03-01T05:00:35.545Z,0.00
2019-03-01T05:01:35.488Z,0.00
2019-03-01T05:02:35.415Z,0.00
2019-03-01T05:03:35.347Z,0.00
2019-03-01T05:04:35.300Z,0.00
2019-03-01T05:05:35.217Z,0.00
2019-03-01T05:06:35.161Z,0.00
2019-03-01T05:07:35.091Z,0.00
2019-03-01T05:08:35.022Z,0.00
2019-03-01T05:09:34.952Z,0.00
2019-03-01T05:10:34.889Z,0.00
2019-03-01T05:11:34.821Z,0.00
2019-03-01T05:12:34.760Z,0.00
2019-03-01T05:13:34.693Z,0.00
2019-03-01T05:14:34.630Z,0.00
2019-03-01T05:15:34.564Z,0.00
2019-03-01T05:16:34.498Z,0.00
2019-03-01T05:17:34.430Z,0.00
2019-03-01T05:18:34.364Z,0.00
2019-03-01T05:19:34.299Z,0.00
2019-03-01T05:20:34.239Z,0.00
2019-03-01T05:21:34.171Z,0.00
2019-03-01T05:22:34.101Z,0.00
2019-03-01T05:23:34.042Z,0.00
2019-03-01T05:24:33.979Z,0.00
2019-03-01T05:25:33.927Z,0.00
2019-03-01T05:26:33.840Z,0.00
2019-03-01T05:27:33.772Z,0.00
2019-03-01T05:28:33.709Z,0.00
2019-03-01T05:29:33.642Z,0.00
2019-03-01T05:30:33.579Z,0.00
2019-03-01T05:31:33.537Z,0.00
2019-03-01T05:32:33.461Z,0.00
2019-03-01T05:33:33.377Z,0.00
2019-03-01T05:34:33.312Z,0.00
2019-03-01T05:35:33.253Z,0.00
2019-03-01T05:36:33.191Z,0.00
2019-03-01T05:37:33.120Z,0.00
2019-03-01T05:38:33.096Z,0.00
2019-03-01T05:39:33.009Z,0.00
2019-03-01T05:40:32.918Z,0.00
2019-03-01T05:41:32.865Z,0.00
2019-03-01T05:42:32.788Z,0.00
2019-03-01T05:43:32.721Z,4.00
2019-03-01T05:44:32.658Z,4.00
2019-03-01T05:45:32.590Z,4.00
2019-03-01T05:46:32.526Z,4.00
2019-03-01T05:47:32.472Z,4.00
2019-03-01T05:48:32.396Z,4.00
2019-03-01T05:49:32.327Z,8.00
2019-03-01T05:50:32.271Z,8.00
2019-03-01T05:51:32.196Z,4.00
2019-03-01T05:52:32.156Z,8.00
2019-03-01T05:53:32.068Z,8.00
2019-03-01T05:54:32.000Z,12.00
2019-03-01T05:55:31.934Z,12.00
2019-03-01T05:56:31.865Z,12.00
2019-03-01T05:57:31.806Z,12.00
2019-03-01T05:58:31.754Z,12.00
2019-03-01T05:59:31.677Z,16.00
2019-03-01T06:00:31.614Z,12.00
2019-03-01T06:01:31.575Z,12.00
2019-03-01T06:02:31.474Z,12.00
2019-03-01T06:03:31.435Z,12.00
2019-03-01T06:04:31.363Z,12.00
2019-03-01T06:05:31.299Z,12.00
2019-03-01T06:06:31.218Z,16.00
2019-03-01T06:07:31.150Z,20.00
2019-03-01T06:08:31.085Z,32.00
2019-03-01T06:09:31.019Z,48.00
2019-03-01T06:10:30.968Z,56.00
2019-03-01T06:11:30.885Z,68.00
2019-03-01T06:12:30.819Z,72.00
2019-03-01T06:13:30.768Z,76.00
2019-03-01T06:14:30.690Z,80.00
2019-03-01T06:15:30.659Z,84.00
2019-03-01T06:16:30.572Z,96.00
2019-03-01T06:17:30.503Z,96.00
2019-03-01T06:18:30.439Z,96.00
2019-03-01T06:19:30.367Z,100.00
2019-03-01T06:20:30.301Z,120.00
2019-03-01T06:21:30.235Z,140.00
2019-03-01T06:22:30.169Z,144.00
2019-03-01T06:23:30.104Z,136.00
2019-03-01T06:24:30.043Z,144.00
2019-03-01T06:25:29.981Z,160.00
2019-03-01T06:26:29.908Z,164.00
2019-03-01T06:27:29.861Z,176.00
2019-03-01T06:28:29.791Z,180.00
2019-03-01T06:29:29.729Z,176.00
2019-03-01T06:30:29.654Z,188.00
2019-03-01T06:31:29.584Z,216.00
2019-03-01T06:32:29.518Z,228.00
2019-03-01T06:33:29.450Z,260.00
2019-03-01T06:34:29.418Z,300.00
2019-03-01T06:35:29.321Z,332.00
2019-03-01T06:36:29.269Z,392.00
2019-03-01T06:37:29.214Z,380.00
2019-03-01T06:38:29.125Z,336.00
2019-03-01T06:39:29.057Z,324.00
2019-03-01T06:40:28.994Z,376.00
2019-03-01T06:41:28.930Z,348.00
2019-03-01T06:42:28.865Z,324.00
2019-03-01T06:43:28.802Z,320.00
2019-03-01T06:44:28.742Z,332.00
2019-03-01T06:45:28.672Z,356.00
2019-03-01T06:46:28.602Z,304.00
2019-03-01T06:47:28.546Z,328.00
2019-03-01T06:48:28.473Z,352.00
2019-03-01T06:49:28.405Z,348.00
2019-03-01T06:50:28.344Z,368.00
2019-03-01T06:51:29.087Z,388.00
2019-03-01T06:52:28.215Z,380.00
2019-03-01T06:53:28.152Z,384.00
2019-03-01T06:54:28.108Z,392.00
2019-03-01T06:55:28.013Z,408.00
2019-03-01T06:56:27.962Z,424.00
2019-03-01T06:57:27.891Z,420.00
2019-03-01T06:58:27.830Z,412.00
2019-03-01T06:59:27.758Z,400.00
2019-03-01T07:00:27.692Z,408.00
2019-03-01T07:01:27.635Z,404.00
2019-03-01T07:02:27.568Z,388.00
2019-03-01T07:03:27.498Z,368.00
2019-03-01T07:04:27.444Z,376.00
2019-03-01T07:05:27.367Z,392.00
2019-03-01T07:06:27.299Z,420.00
2019-03-01T07:07:27.233Z,468.00
2019-03-01T07:08:27.182Z,492.00
2019-03-01T07:09:27.109Z,492.00
2019-03-01T07:10:27.041Z,356.00
2019-03-01T07:11:26.993Z,340.00
2019-03-01T07:12:26.925Z,364.00
2019-03-01T07:13:26.857Z,368.00
2019-03-01T07:14:26.809Z,408.00
2019-03-01T07:15:26.716Z,424.00
2019-03-01T07:16:26.660Z,388.00
2019-03-01T07:17:26.587Z,448.00
2019-03-01T07:18:26.522Z,452.00
2019-03-01T07:19:26.456Z,436.00
2019-03-01T07:20:26.392Z,460.00
2019-03-01T07:21:26.325Z,500.00
2019-03-01T07:22:26.262Z,568.00
2019-03-01T07:23:26.200Z,640.00
2019-03-01T07:24:26.133Z,676.00
2019-03-01T07:25:26.069Z,688.00
2019-03-01T07:26:26.013Z,704.00
2019-03-01T07:27:25.938Z,692.00
2019-03-01T07:28:25.887Z,712.00
2019-03-01T07:29:25.818Z,668.00
2019-03-01T07:30:25.742Z,656.00
2019-03-01T07:31:25.694Z,680.00
2019-03-01T07:32:25.614Z,672.00
2019-03-01T07:33:25.555Z,632.00
2019-03-01T07:34:25.493Z,572.00
2019-03-01T07:35:25.418Z,532.00
2019-03-01T07:36:25.355Z,448.00
2019-03-01T07:37:25.295Z,392.00
2019-03-01T07:38:25.234Z,388.00
2019-03-01T07:39:25.229Z,444.00
2019-03-01T07:40:25.100Z,472.00
2019-03-01T07:41:25.031Z,508.00
2019-03-01T07:42:24.969Z,536.00
2019-03-01T07:43:24.902Z,508.00
2019-03-01T07:44:24.854Z,504.00
2019-03-01T07:45:24.775Z,484.00
2019-03-01T07:46:24.706Z,504.00
2019-03-01T07:47:24.643Z,548.00
2019-03-01T07:48:24.578Z,616.00
2019-03-01T07:49:24.526Z,664.00
2019-03-01T07:50:24.447Z,696.00
2019-03-01T07:51:26.957Z,748.00
2019-03-01T07:52:24.315Z,780.00
2019-03-01T07:53:24.250Z,824.00
2019-03-01T07:54:24.204Z,880.00
2019-03-01T07:55:24.947Z,944.00
2019-03-01T07:56:24.072Z,1032.00
2019-03-01T07:57:24.015Z,1112.00
2019-03-01T07:58:25.747Z,1160.00
2019-03-01T07:59:24.102Z,1148.00
2019-03-01T08:00:23.835Z,1132.00
2019-03-01T08:01:25.672Z,1148.00
2019-03-01T08:02:23.670Z,1276.00
2019-03-01T08:03:23.618Z,1376.00
2019-03-01T08:04:27.516Z,1352.00
2019-03-01T08:05:23.475Z,1256.00
2019-03-01T08:06:23.424Z,1156.00
2019-03-01T08:07:23.556Z,1128.00
2019-03-01T08:08:23.294Z,1128.00
2019-03-01T08:09:23.237Z,1116.00
2019-03-01T08:10:23.485Z,1044.00
2019-03-01T08:11:23.086Z,1096.00
2019-03-01T08:12:23.017Z,1128.00
2019-03-01T08:13:22.956Z,1096.00
2019-03-01T08:14:24.680Z,1040.00
2019-03-01T08:15:22.838Z,1008.00
2019-03-01T08:16:25.036Z,956.00
2019-03-01T08:17:22.705Z,1040.00
2019-03-01T08:18:22.634Z,1080.00
2019-03-01T08:19:23.582Z,1064.00
2019-03-01T08:20:22.545Z,1056.00
2019-03-01T08:21:22.460Z,1000.00
2019-03-01T08:22:24.880Z,1008.00
2019-03-01T08:23:22.307Z,1032.00
2019-03-01T08:24:22.259Z,1028.00
2019-03-01T08:25:23.350Z,1024.00
2019-03-01T08:26:22.115Z,1032.00
2019-03-01T08:27:22.055Z,1112.00
2019-03-01T08:28:22.930Z,1148.00
2019-03-01T08:29:21.927Z,1188.00
2019-03-01T08:30:21.855Z,1200.00
2019-03-01T08:31:22.281Z,1200.00
2019-03-01T08:32:21.727Z,1224.00
2019-03-01T08:33:21.674Z,1240.00
2019-03-01T08:34:21.600Z,1256.00
2019-03-01T08:35:21.535Z,1260.00
2019-03-01T08:36:21.468Z,1252.00
2019-03-01T08:37:21.429Z,1296.00
2019-03-01T08:38:21.349Z,1340.00
2019-03-01T08:39:21.294Z,1372.00
2019-03-01T08:40:21.231Z,1380.00
2019-03-01T08:41:21.586Z,1364.00
2019-03-01T08:42:21.082Z,1388.00
2019-03-01T08:43:21.018Z,1372.00
2019-03-01T08:44:22.986Z,1380.00
2019-03-01T08:45:20.889Z,1300.00
2019-03-01T08:46:20.824Z,1404.00
2019-03-01T08:47:24.443Z,1456.00
2019-03-01T08:48:20.693Z,1396.00
2019-03-01T08:49:20.636Z,1268.00
2019-03-01T08:50:20.566Z,1208.00
2019-03-01T08:51:22.659Z,1244.00
2019-03-01T08:52:20.437Z,1212.00
2019-03-01T08:53:20.370Z,1212.00
2019-03-01T08:54:22.867Z,1316.00
2019-03-01T08:55:20.243Z,1288.00
2019-03-01T08:56:25.916Z,1224.00
2019-03-01T08:57:22.615Z,1220.00
2019-03-01T08:58:20.049Z,1248.00
2019-03-01T08:59:19.994Z,1260.00
2019-03-01T09:00:23.047Z,1212.00
2019-03-01T09:01:19.856Z,1156.00
2019-03-01T09:02:19.788Z,1088.00
2019-03-01T09:03:22.161Z,1156.00
2019-03-01T09:04:21.632Z,1108.00
2019-03-01T09:05:19.595Z,1088.00
2019-03-01T09:06:19.535Z,984.00
2019-03-01T09:07:19.948Z,1008.00
2019-03-01T09:08:19.559Z,964.00
2019-03-01T09:09:20.958Z,820.00
2019-03-01T09:10:19.274Z,792.00
2019-03-01T09:11:19.221Z,936.00
2019-03-01T09:12:19.154Z,1024.00
2019-03-01T09:13:19.084Z,1128.00
2019-03-01T09:14:19.035Z,1132.00
2019-03-01T09:15:18.952Z,1084.00
2019-03-01T09:16:18.887Z,1084.00
2019-03-01T09:17:18.849Z,1052.00
2019-03-01T09:18:18.761Z,1020.00
2019-03-01T09:19:18.699Z,1040.00
2019-03-01T09:20:19.104Z,1044.00
2019-03-01T09:21:18.584Z,1028.00
2019-03-01T09:22:18.508Z,1004.00
2019-03-01T09:23:24.278Z,1080.00
2019-03-01T09:24:18.387Z,1072.00
2019-03-01T09:25:18.329Z,1212.00
2019-03-01T09:26:19.952Z,1304.00
2019-03-01T09:27:18.202Z,1224.00
2019-03-01T09:28:18.115Z,1196.00
2019-03-01T09:29:19.319Z,1180.00
2019-03-01T09:30:17.986Z,1204.00
2019-03-01T09:31:17.922Z,1168.00
2019-03-01T09:32:17.863Z,1200.00
2019-03-01T09:33:21.570Z,1140.00
2019-03-01T09:34:17.747Z,1268.00
2019-03-01T09:35:17.663Z,1312.00
2019-03-01T09:36:20.607Z,1412.00
2019-03-01T09:37:17.560Z,1300.00
2019-03-01T09:38:17.474Z,1156.00
2019-03-01T09:39:17.835Z,1196.00
2019-03-01T09:40:17.343Z,1040.00
2019-03-01T09:41:17.279Z,1048.00
2019-03-01T09:42:17.231Z,1180.00
2019-03-01T09:43:17.150Z,1352.00
2019-03-01T09:44:17.096Z,1408.00
2019-03-01T09:45:18.721Z,1360.00
2019-03-01T09:46:16.969Z,1316.00
2019-03-01T09:47:16.911Z,1472.00
2019-03-01T09:48:16.824Z,1260.00
2019-03-01T09:49:16.760Z,1472.00
2019-03-01T09:50:16.705Z,1380.00
2019-03-01T09:51:16.636Z,1384.00
2019-03-01T09:52:16.571Z,1312.00
2019-03-01T09:53:16.506Z,1172.00
2019-03-01T09:54:16.447Z,1000.00
2019-03-01T09:55:16.380Z,988.00
2019-03-01T09:56:16.334Z,888.00
2019-03-01T09:57:16.489Z,940.00
2019-03-01T09:58:16.179Z,956.00
2019-03-01T09:59:16.120Z,932.00
2019-03-01T10:00:16.055Z,1104.00
2019-03-01T10:01:15.992Z,1020.00
2019-03-01T10:02:15.923Z,1024.00
2019-03-01T10:03:15.857Z,1076.00
2019-03-01T10:04:15.809Z,1064.00
2019-03-01T10:05:15.763Z,1120.00
2019-03-01T10:06:15.687Z,1216.00
2019-03-01T10:07:15.608Z,1244.00
2019-03-01T10:08:15.535Z,1312.00
2019-03-01T10:09:15.481Z,1320.00
2019-03-01T10:10:15.421Z,1156.00
2019-03-01T10:11:15.342Z,1120.00
2019-03-01T10:12:15.300Z,1060.00
2019-03-01T10:13:15.211Z,1076.00
2019-03-01T10:14:15.150Z,1456.00
2019-03-01T10:15:15.092Z,1500.00
2019-03-01T10:16:15.021Z,1504.00
2019-03-01T10:17:14.963Z,1588.00
2019-03-01T10:18:14.904Z,1592.00
2019-03-01T10:19:14.828Z,1628.00
2019-03-01T10:20:14.764Z,1584.00
2019-03-01T10:21:14.713Z,1732.00
2019-03-01T10:22:14.631Z,1760.00
2019-03-01T10:23:14.587Z,1848.00
2019-03-01T10:24:14.510Z,1976.00
2019-03-01T10:25:14.439Z,2056.00
2019-03-01T10:26:14.375Z,2088.00
2019-03-01T10:27:14.313Z,1976.00
2019-03-01T10:28:14.244Z,1796.00
2019-03-01T10:29:14.185Z,1700.00
2019-03-01T10:30:14.119Z,1696.00
2019-03-01T10:31:14.051Z,1624.00
2019-03-01T10:32:13.993Z,1504.00
2019-03-01T10:33:13.940Z,1424.00
2019-03-01T10:34:13.861Z,1356.00
2019-03-01T10:35:13.794Z,1172.00
2019-03-01T10:36:13.732Z,1120.00
2019-03-01T10:37:13.688Z,1308.00
2019-03-01T10:38:13.603Z,1348.00
2019-03-01T10:39:13.534Z,1364.00
2019-03-01T10:40:13.497Z,1436.00
2019-03-01T10:41:13.408Z,1548.00
2019-03-01T10:42:13.367Z,1532.00
2019-03-01T10:43:13.280Z,1416.00
2019-03-01T10:44:13.223Z,1324.00
2019-03-01T10:45:13.172Z,1436.00
2019-03-01T10:46:13.090Z,1420.00
2019-03-01T10:47:13.027Z,1336.00
2019-03-01T10:48:12.959Z,1336.00
2019-03-01T10:49:12.890Z,1372.00
2019-03-01T10:50:12.836Z,1472.00
2019-03-01T10:51:12.762Z,1604.00
2019-03-01T10:52:12.702Z,1656.00
2019-03-01T10:53:12.677Z,1648.00
2019-03-01T10:54:12.580Z,1784.00
2019-03-01T10:55:12.508Z,1796.00
2019-03-01T10:56:12.444Z,1692.00
2019-03-01T10:57:12.385Z,1676.00
2019-03-01T10:58:12.316Z,1596.00
2019-03-01T10:59:12.252Z,1556.00
2019-03-01T11:00:12.206Z,1516.00
2019-03-01T11:01:12.119Z,1500.00
2019-03-01T11:02:12.059Z,1208.00
2019-03-01T11:03:11.993Z,1168.00
2019-03-01T11:04:11.926Z,1432.00
2019-03-01T11:05:11.863Z,1780.00
2019-03-01T11:06:11.801Z,1812.00
2019-03-01T11:07:11.747Z,1212.00
2019-03-01T11:08:11.668Z,1172.00
2019-03-01T11:09:11.616Z,1140.00
2019-03-01T11:10:11.539Z,1360.00
2019-03-01T11:11:11.477Z,1544.00
2019-03-01T11:12:11.432Z,1568.00
2019-03-01T11:13:11.353Z,1628.00
2019-03-01T11:14:11.284Z,1492.00
2019-03-01T11:15:11.220Z,1484.00
2019-03-01T11:16:11.158Z,1468.00
2019-03-01T11:17:11.100Z,1564.00
2019-03-01T11:18:11.021Z,1780.00
2019-03-01T11:19:10.960Z,1808.00
2019-03-01T11:20:10.906Z,1712.00
2019-03-01T11:21:10.841Z,1560.00
2019-03-01T11:22:10.769Z,1348.00
2019-03-01T11:23:10.720Z,1384.00
2019-03-01T11:24:10.634Z,1236.00
2019-03-01T11:25:10.574Z,1168.00
2019-03-01T11:26:10.506Z,1196.00
2019-03-01T11:27:13.031Z,928.00
2019-03-01T11:28:10.636Z,1164.00
2019-03-01T11:29:10.322Z,688.00
2019-03-01T11:30:10.282Z,772.00
2019-03-01T11:31:10.192Z,1024.00
2019-03-01T11:32:10.118Z,764.00
2019-03-01T11:33:10.058Z,912.00
2019-03-01T11:34:09.992Z,956.00
2019-03-01T11:35:09.924Z,912.00
2019-03-01T11:36:09.859Z,1012.00
2019-03-01T11:37:09.793Z,1372.00
2019-03-01T11:38:09.730Z,1252.00
2019-03-01T11:39:09.668Z,1148.00
2019-03-01T11:40:09.601Z,1080.00
2019-03-01T11:41:09.535Z,1192.00
2019-03-01T11:42:09.471Z,1232.00
2019-03-01T11:43:09.421Z,1244.00
2019-03-01T11:44:09.342Z,1068.00
2019-03-01T11:45:09.277Z,1336.00
2019-03-01T11:46:09.216Z,1508.00
2019-03-01T11:47:09.145Z,1568.00
2019-03-01T11:48:09.085Z,1360.00
2019-03-01T11:49:09.022Z,1208.00
2019-03-01T11:50:08.956Z,1132.00
2019-03-01T11:51:08.892Z,1000.00
2019-03-01T11:52:08.828Z,1060.00
2019-03-01T11:53:08.806Z,956.00
2019-03-01T11:54:08.701Z,984.00
2019-03-01T11:55:08.628Z,948.00
2019-03-01T11:56:08.580Z,1004.00
2019-03-01T11:57:08.502Z,1124.00
2019-03-01T11:58:08.435Z,1416.00
2019-03-01T11:59:08.373Z,1908.00
2019-03-01T12:00:08.330Z,2364.00
2019-03-01T12:01:16.869Z,2488.00
2019-03-01T12:02:08.193Z,2808.00
2019-03-01T12:03:08.122Z,3040.00
2019-03-01T12:04:08.053Z,2844.00
2019-03-01T12:05:07.985Z,2552.00
2019-03-01T12:06:07.939Z,2624.00
2019-03-01T12:07:07.878Z,2616.00
2019-03-01T12:08:07.793Z,2868.00
2019-03-01T12:09:07.731Z,3056.00
2019-03-01T12:10:07.672Z,2996.00
2019-03-01T12:11:07.607Z,2772.00
2019-03-01T12:12:07.535Z,2472.00
2019-03-01T12:13:07.485Z,2436.00
2019-03-01T12:14:07.402Z,2508.00
2019-03-01T12:15:07.340Z,2528.00
2019-03-01T12:16:07.277Z,2524.00
2019-03-01T12:17:07.219Z,2500.00
2019-03-01T12:18:07.148Z,2392.00
2019-03-01T12:19:07.083Z,2268.00
2019-03-01T12:20:07.023Z,2196.00
2019-03-01T12:21:06.955Z,2184.00
2019-03-01T12:22:06.893Z,2076.00
2019-03-01T12:23:06.843Z,1996.00
2019-03-01T12:24:06.763Z,1752.00
2019-03-01T12:25:06.709Z,1576.00
2019-03-01T12:26:06.634Z,1496.00
2019-03-01T12:27:06.570Z,1548.00
2019-03-01T12:28:06.533Z,1644.00
2019-03-01T12:29:06.466Z,1664.00
2019-03-01T12:30:06.386Z,1640.00
2019-03-01T12:31:06.314Z,1620.00
2019-03-01T12:32:06.251Z,1592.00
2019-03-01T12:33:06.206Z,1604.00
2019-03-01T12:34:06.124Z,1552.00
2019-03-01T12:35:06.057Z,1528.00
2019-03-01T12:36:06.017Z,1604.00
2019-03-01T12:37:05.927Z,1500.00
2019-03-01T12:38:05.875Z,1396.00
2019-03-01T12:39:05.801Z,1468.00
2019-03-01T12:40:05.735Z,1352.00
2019-03-01T12:41:05.671Z,1188.00
2019-03-01T12:42:05.608Z,1336.00
2019-03-01T12:43:05.552Z,1208.00